Flight Track Log - Related Links

Times and Time Zones

All times are in EDT time to prevent confusion due to time zone crossing. See the LXJ327 flight status page for this flight to view local times or setup timezone preferences in your user account.


Time Position Orientation Groundspeed Altitude Reporting Facility
EDT Latitude Longitude Course Direction KTS MPH feet Rate Location/Type
Fri 07:04:39 PM 41.7886 -85.4389 236° Southwest 189 217 2,400  Level Chicago Center
Fri 07:05:41 PM 41.7519 -85.3864 133° Southeast 225 259 4,100 2,419 Climbing Chicago Center
Fri 07:06:43 PM 41.6800 -85.4192 199° South 256 295 7,400 3,290 Climbing Chicago Center
Fri 07:07:45 PM 41.6589 -85.5131 253° West 276 318 10,900 3,048 Climbing Chicago Center
Fri 07:08:47 PM 41.6339 -85.6133 252° West 284 327 13,700 2,419 Climbing Chicago Center
Fri 07:09:49 PM 41.6033 -85.7303 251° West 324 373 15,900 2,177 Climbing Chicago Center
Fri 07:10:00 PM 41.4531 -86.0813 236° Southwest  Level Estimated
Fri 07:10:51 PM 41.5700 -85.8578 251° West 358 412 18,200  Level Chicago Center
Fri 07:11:53 PM 41.5286 -86.0144 251° West 371 427 21,100 2,468 Climbing Chicago Center
Fri 07:12:55 PM 41.5156 -86.1506 263° West 372 428 23,300 1,839 Climbing Chicago Center
Fri 07:13:57 PM 41.4975 -86.2925 260° West 389 448 24,900 1,500 Climbing Chicago Center
Fri 07:14:59 PM 41.4364 -86.4211 238° Southwest 411 473 26,400 1,440 Climbing Chicago Center
Fri 07:16:02 PM 41.3711 -86.5506 236° Southwest 423 487 27,900 1,536 Climbing Chicago Center
Fri 07:17:04 PM 41.2767 -86.6956 229° Southwest 433 498 29,600 1,355 Climbing Chicago Center
Fri 07:18:06 PM 41.2056 -86.8100 230° Southwest 433 498 30,700 726 Climbing Chicago Center
Fri 07:19:08 PM 41.1239 -86.9367 229° Southwest 449 517 31,100 871 Climbing Chicago Center
Fri 07:20:10 PM 41.0397 -87.0669 229° Southwest 463 533 32,500 1,548 Climbing Chicago Center
Fri 07:21:12 PM 40.9411 -87.2192 229° Southwest 455 524 34,300 1,452 Climbing Chicago Center
Fri 07:22:14 PM 40.8594 -87.3428 229° Southwest 449 517 35,500 823 Climbing Chicago Center
Fri 07:23:16 PM 40.7783 -87.4681 229° Southwest 448 516 36,000 242 Climbing Chicago Center
Fri 07:24:18 PM 40.6950 -87.5936 229° Southwest 453 521 36,000  Level Chicago Center
Fri 07:25:20 PM 40.6117 -87.7219 229° Southwest 459 528 36,000  Level Chicago Center
Fri 07:26:22 PM 40.5114 -87.8728 229° Southwest 459 528 36,000  Level Chicago Center
Fri 07:27:25 PM 40.4306 -87.9958 229° Southwest 451 519 36,000  Level Chicago Center
Fri 07:28:27 PM 40.3478 -88.1206 229° Southwest 451 519 36,000 -1,016 Level Chicago Center
Fri 07:29:29 PM 40.2636 -88.2447 228° Southwest 454 522 33,900 -2,274 Descending Chicago Center
Fri 07:30:31 PM 40.1753 -88.3736 228° Southwest 468 539 31,300 -2,371 Descending Chicago Center
Fri 07:31:33 PM 40.0947 -88.4925 228° Southwest 436 502 29,000 -1,597 Descending Chicago Center
Fri 07:32:35 PM 40.0200 -88.6011 228° Southwest 403 464 28,000 -484 Descending Chicago Center
Fri 07:33:37 PM 39.9319 -88.7294 228° Southwest 393 452 28,000 -435 Level Chicago Center
Fri 07:34:39 PM 39.8575 -88.8386 228° Southwest 397 457 27,100 -923 Descending Chicago Center
Fri 07:35:21 PM 39.8083 -88.9133 229° Southwest 412 474 26,400 -635 Descending Kansas City Center
Fri 07:36:23 PM 39.7264 -89.0317 228° Southwest 432 497 26,000 -629 Descending Kansas City Center
Fri 07:37:25 PM 39.6472 -89.1464 228° Southwest 429 494 25,100 -1,680 Descending Kansas City Center
Fri 07:38:28 PM 39.5547 -89.2800 228° Southwest 418 481 22,500 -2,256 Descending Kansas City Center
Fri 07:39:30 PM 39.4894 -89.3725 228° Southwest 402 463 20,400 -2,032 Descending Kansas City Center
Fri 07:40:32 PM 39.4217 -89.4694 228° Southwest 376 433 18,300 -2,226 Descending Kansas City Center
Fri 07:41:34 PM 39.3447 -89.5794 228° Southwest 352 405 15,800 -2,129 Descending Kansas City Center
Fri 07:42:36 PM 39.2839 -89.6678 228° Southwest 338 389 13,900 -1,790 Descending Kansas City Center
Fri 07:43:38 PM 39.2233 -89.7522 227° Southwest 326 375 12,100 -1,403 Descending Kansas City Center
Fri 07:44:40 PM 39.1567 -89.8422 226° Southwest 318 366 11,000 -1,306 Descending Kansas City Center
Fri 07:45:42 PM 39.0969 -89.9189 225° Southwest 291 335 9,400 -1,548 Descending Kansas City Center
Fri 07:46:44 PM 39.0447 -89.9856 225° Southwest 272 313 7,800 -1,403 Descending Kansas City Center
Fri 07:47:46 PM 38.9928 -90.0525 225° Southwest 263 303 6,500 -1,210 Descending Kansas City Center
Fri 07:48:48 PM 38.9414 -90.1181 225° Southwest 261 300 5,300 -1,113 Descending Kansas City Center
Fri 07:49:50 PM 38.8914 -90.1817 225° Southwest 259 298 4,200 -629 Descending Kansas City Center
Fri 07:50:52 PM 38.8464 -90.2403 225° Southwest 246 283 4,000 -97 Descending Kansas City Center
Fri 07:51:54 PM 38.7956 -90.3056 225° Southwest 249 287 4,000  Level Kansas City Center
Fri 07:52:56 PM 38.7361 -90.3828 225° Southwest 255 293 4,000 -387 Level Kansas City Center
Fri 07:53:58 PM 38.7028 -90.4433 235° Southwest 233 268 3,200 -823 Descending Kansas City Center
Fri 07:55:00 PM 38.6836 -90.5056 248° West 207 238 2,300 -774 Descending Kansas City Center
Fri 07:56:02 PM 38.6733 -90.5642 257° West 187 215 1,600 -726 Descending Kansas City Center
Fri 07:57:04 PM 38.6647 -90.6169 258° West 146 168 800 -581 Descending Kansas City Center
Fri 07:58:06 PM 38.6589 -90.6567 259° West 138 159 400 -387 Descending Kansas City Center

Login

Don't have an account? Register now (free) for customized features, flight alerts, and more!